Portada
METAR-TAF:

METAR-TAF

Aeroports :

Wangaratta, Austràlia

latitud: 36-24-57S, longitud: 146-18-25E, altitud: 154 m

Observació

L'informe es va fer fa 28 minuts, a les 23:30 UTC
Vent 9 kt del Nord
Temperatura 18°C
Humitat 100%
Pressió 1010 hPa
Núvols disperses a una alçada de 600 ft
Cel ennuvolat a una alçada de 1200 ft
Cel ennuvolat a una alçada de 3100 ft

METAR: YWGT 012330Z AUTO 01009KT //// // SCT006 BKN012 BKN031 18/18 Q1010

Hora: 10:58 (23:58 UTC)

Pronòstic

L'informe es va fer fa 22 hores i 39 minuts, a les 01:19 UTC
Pronòstic vàlid del 01 a les 02 UTC al 01 a les 14 UTC
Vent 6 kt del Nord-Est
Visibilitat 10 km o més
sense núvols per sota de 1500 mi sense presència de cumulonimbus.
A partir de les 01 a les 0900 UTC
Vent 4 kt del Est/Sud-Est
Visibilitat 10 km o més
sense núvols per sota de 1500 mi sense presència de cumulonimbus.

TAF: YWGT 010119Z 0102/0114 05006KT CAVOK FM010900 12004KT CAVOK

Observacions i pronòstics meteorològics de més de 4000 aeroports (METAR i TAF).

Les estacions disponibles són els punts grocs i vermells al mapa.

Posi el ratolí al punt desitjat per veure el nom de l'estació.

Feu clic per veure les observacions i els pronòstics meteorològics.

Per canviar el mapa: feu clic els botons verds amb una creu de color negre per apropar; al botó verd amb un guió per allunyar la imatge; o en les fletxes verdes per a mapes adjacents.


METAR-TAF: